createdAt,value
2018-04-29T00:02:02.283Z,70.00
2018-04-29T00:05:01.122Z,70.80
2018-04-29T00:07:59.754Z,70.30
2018-04-29T00:10:57.678Z,70.00
2018-04-29T00:13:56.311Z,71.00
2018-04-29T00:16:54.089Z,71.20
2018-04-29T00:19:53.132Z,71.50
2018-04-29T00:22:51.023Z,72.50
2018-04-29T00:25:50.714Z,73.70
2018-04-29T00:28:48.328Z,73.70
2018-04-29T00:31:47.025Z,74.50
2018-04-29T00:34:51.603Z,73.80
2018-04-29T00:37:49.411Z,73.80
2018-04-29T00:40:48.312Z,73.40
2018-04-29T00:43:46.304Z,73.50
2018-04-29T00:46:44.065Z,74.30
2018-04-29T00:49:41.896Z,74.10
2018-04-29T00:52:40.690Z,74.90
2018-04-29T00:55:41.554Z,75.40
2018-04-29T00:58:39.411Z,75.30
2018-04-29T01:01:39.224Z,77.10
2018-04-29T01:04:36.991Z,76.20
2018-04-29T01:07:36.964Z,76.30
2018-04-29T01:10:34.714Z,76.50
2018-04-29T01:13:32.380Z,76.30
2018-04-29T01:16:30.192Z,77.00
2018-04-29T01:19:29.183Z,77.80
2018-04-29T01:22:29.069Z,77.70
2018-04-29T01:25:28.018Z,77.70
2018-04-29T01:28:26.871Z,77.80
2018-04-29T01:31:24.763Z,78.10
2018-04-29T01:34:22.666Z,77.90
2018-04-29T01:37:21.592Z,79.70
2018-04-29T01:40:19.312Z,80.10
2018-04-29T01:43:17.920Z,80.30
2018-04-29T01:46:15.688Z,81.40
2018-04-29T01:49:16.495Z,81.90
2018-04-29T01:52:14.178Z,81.90
2018-04-29T01:55:13.024Z,82.80
2018-04-29T01:58:10.695Z,82.60
2018-04-29T02:01:10.525Z,83.00
2018-04-29T02:04:09.491Z,83.80
2018-04-29T02:07:07.163Z,83.80
2018-04-29T02:10:05.881Z,83.80
2018-04-29T02:13:05.833Z,84.70
2018-04-29T02:16:03.673Z,84.70
2018-04-29T02:19:03.414Z,84.90
2018-04-29T02:22:01.371Z,84.70
2018-04-29T02:25:00.198Z,84.90
2018-04-29T02:27:58.150Z,85.70
2018-04-29T02:31:03.946Z,86.00
2018-04-29T02:34:01.784Z,85.90
2018-04-29T02:36:59.503Z,86.00
2018-04-29T02:39:58.282Z,86.00
2018-04-29T02:42:58.167Z,86.20
2018-04-29T02:45:55.874Z,86.20
2018-04-29T02:48:54.595Z,86.50
2018-04-29T02:51:53.330Z,86.40
2018-04-29T02:54:51.305Z,86.60
2018-04-29T02:57:48.991Z,86.60
2018-04-29T03:00:48.864Z,86.80
2018-04-29T03:03:46.743Z,86.70
2018-04-29T03:06:45.464Z,87.30
2018-04-29T03:09:44.341Z,86.90
2018-04-29T03:12:43.263Z,86.90
2018-04-29T03:15:42.023Z,87.10
2018-04-29T03:18:41.611Z,87.10
2018-04-29T03:21:39.571Z,87.30
2018-04-29T03:24:37.348Z,87.60
2018-04-29T03:27:37.572Z,87.90
2018-04-29T03:30:36.274Z,88.00
2018-04-29T03:33:34.132Z,88.10
2018-04-29T03:36:32.879Z,88.40
2018-04-29T03:39:31.015Z,88.60
2018-04-29T03:42:30.502Z,88.40
2018-04-29T03:45:28.434Z,88.40
2018-04-29T03:48:26.143Z,88.20
2018-04-29T03:51:25.122Z,87.70
2018-04-29T03:54:23.942Z,87.70
2018-04-29T03:57:31.842Z,87.80
2018-04-29T04:02:42.984Z,87.80
2018-04-29T04:05:40.687Z,87.70
2018-04-29T04:08:39.575Z,89.10
2018-04-29T04:11:37.265Z,89.10
2018-04-29T04:14:35.007Z,89.10
2018-04-29T04:17:33.949Z,89.20
2018-04-29T04:20:32.800Z,90.10
2018-04-29T04:23:32.569Z,90.10
2018-04-29T04:26:31.327Z,92.10
2018-04-29T04:29:29.329Z,92.10
2018-04-29T04:32:27.772Z,92.00
2018-04-29T04:35:25.515Z,92.20
2018-04-29T04:38:23.363Z,92.30
2018-04-29T04:41:21.158Z,92.50
2018-04-29T04:44:18.850Z,92.50
2018-04-29T04:47:19.639Z,92.30
2018-04-29T04:50:17.446Z,92.30
2018-04-29T04:53:16.255Z,92.10
2018-04-29T04:56:14.175Z,91.40
2018-04-29T04:59:12.102Z,90.60
2018-04-29T05:02:10.977Z,89.90
2018-04-29T05:05:11.612Z,89.10
2018-04-29T05:08:10.358Z,88.30
2018-04-29T05:11:09.386Z,88.30
2018-04-29T05:14:08.006Z,87.20
2018-04-29T05:17:06.673Z,87.40
2018-04-29T05:20:04.583Z,87.30
2018-04-29T05:23:04.257Z,86.50
2018-04-29T05:26:02.065Z,87.10
2018-04-29T05:29:00.924Z,86.80
2018-04-29T05:31:59.668Z,86.70
2018-04-29T05:34:57.440Z,86.80
2018-04-29T05:37:55.288Z,86.70
2018-04-29T05:40:53.250Z,86.50
2018-04-29T05:43:50.995Z,86.70
2018-04-29T05:46:50.809Z,87.40
2018-04-29T05:49:48.539Z,87.40
2018-04-29T05:52:47.268Z,87.20
2018-04-29T05:55:46.064Z,84.70
2018-04-29T05:58:43.741Z,84.70
2018-04-29T06:01:42.431Z,84.20
2018-04-29T06:04:41.294Z,83.30
2018-04-29T06:07:40.039Z,83.30
2018-04-29T06:10:38.814Z,81.80
2018-04-29T06:13:37.632Z,81.20
2018-04-29T06:16:38.400Z,80.80
2018-04-29T06:19:36.334Z,80.80
2018-04-29T06:22:35.066Z,81.00
2018-04-29T06:25:32.901Z,80.90
2018-04-29T06:28:31.600Z,81.10
2018-04-29T06:31:29.468Z,81.60
2018-04-29T06:34:27.596Z,81.30
2018-04-29T06:37:26.050Z,81.80
2018-04-29T06:40:23.911Z,81.20
2018-04-29T06:43:22.706Z,80.40
2018-04-29T06:46:20.600Z,80.40
2018-04-29T06:49:20.458Z,79.60
2018-04-29T06:52:20.270Z,79.40
2018-04-29T06:55:18.488Z,79.40
2018-04-29T06:58:17.903Z,80.10
2018-04-29T07:01:15.664Z,80.70
2018-04-29T07:04:13.466Z,81.20
2018-04-29T07:07:13.258Z,81.00
2018-04-29T07:10:12.023Z,81.00
2018-04-29T07:13:09.794Z,80.30
2018-04-29T07:16:08.571Z,80.50
2018-04-29T07:19:06.436Z,79.50
2018-04-29T07:22:04.984Z,76.90
2018-04-29T07:25:02.870Z,75.70
2018-04-29T07:28:01.475Z,77.20
2018-04-29T07:31:06.326Z,75.60
2018-04-29T07:34:05.235Z,75.60
2018-04-29T07:37:02.823Z,76.30
2018-04-29T07:40:01.697Z,76.90
2018-04-29T07:42:59.266Z,76.90
2018-04-29T07:45:58.073Z,73.60
2018-04-29T07:48:57.069Z,73.50
2018-04-29T07:51:55.830Z,73.80
2018-04-29T07:54:54.368Z,73.70
2018-04-29T07:57:53.274Z,74.80
2018-04-29T08:00:52.000Z,74.20
2018-04-29T08:03:50.683Z,73.90
2018-04-29T08:06:48.679Z,73.50
2018-04-29T08:09:46.504Z,72.60
2018-04-29T08:12:44.171Z,71.60
2018-04-29T08:15:42.013Z,69.30
2018-04-29T08:18:39.803Z,69.40
2018-04-29T08:21:39.719Z,69.90
2018-04-29T08:24:37.612Z,69.20
2018-04-29T08:27:36.252Z,69.60
2018-04-29T08:30:34.189Z,71.10
2018-04-29T08:33:32.828Z,71.90
2018-04-29T08:36:30.679Z,71.60
2018-04-29T08:39:29.557Z,72.20
2018-04-29T08:42:28.546Z,71.20
2018-04-29T08:45:27.396Z,71.20
2018-04-29T08:48:25.039Z,71.20
2018-04-29T08:51:24.607Z,70.50
2018-04-29T08:54:23.418Z,74.60
2018-04-29T08:57:22.260Z,75.20
2018-04-29T09:00:20.149Z,75.20
2018-04-29T09:03:18.949Z,76.60
2018-04-29T09:06:16.927Z,78.60
2018-04-29T09:09:16.434Z,80.80
2018-04-29T09:12:15.155Z,81.50
2018-04-29T09:15:14.074Z,81.50
2018-04-29T09:18:12.633Z,82.20
2018-04-29T09:21:11.359Z,81.10
2018-04-29T09:24:09.369Z,81.70
2018-04-29T09:27:09.230Z,78.70
2018-04-29T09:30:06.945Z,78.70
2018-04-29T09:33:05.664Z,79.10
2018-04-29T09:36:05.288Z,78.70
2018-04-29T09:39:03.991Z,78.40
2018-04-29T09:42:01.963Z,77.10
2018-04-29T09:45:00.719Z,76.50
2018-04-29T09:47:58.927Z,73.90
2018-04-29T09:50:58.459Z,73.20
2018-04-29T09:53:57.118Z,73.10
2018-04-29T09:56:55.778Z,73.10
2018-04-29T09:59:54.563Z,72.10
2018-04-29T10:02:55.310Z,72.00
2018-04-29T10:05:55.005Z,70.80
2018-04-29T10:08:53.965Z,70.30
2018-04-29T10:14:55.209Z,70.10
2018-04-29T10:17:52.906Z,70.30
2018-04-29T10:20:50.813Z,68.70
2018-04-29T10:23:49.556Z,68.10
2018-04-29T10:26:48.319Z,68.10
2018-04-29T10:29:46.014Z,67.30
2018-04-29T10:32:44.866Z,65.70
2018-04-29T10:35:42.688Z,64.90
2018-04-29T10:38:41.435Z,63.70
2018-04-29T10:41:41.997Z,62.90
2018-04-29T10:44:39.923Z,64.50
2018-04-29T10:47:38.656Z,62.50
2018-04-29T10:50:37.348Z,62.40
2018-04-29T10:53:35.192Z,62.50
2018-04-29T10:56:32.989Z,60.20
2018-04-29T10:59:32.098Z,60.80
2018-04-29T11:02:31.580Z,60.80
2018-04-29T11:05:29.234Z,61.60
2018-04-29T11:08:26.903Z,59.90
2018-04-29T11:11:24.638Z,61.70
2018-04-29T11:14:24.459Z,62.60
2018-04-29T11:17:22.087Z,62.60
2018-04-29T11:20:19.959Z,62.90
2018-04-29T11:23:18.913Z,63.50
2018-04-29T11:26:18.753Z,63.50
2018-04-29T11:29:16.487Z,63.90
2018-04-29T11:32:15.286Z,65.60
2018-04-29T11:35:13.088Z,66.80
2018-04-29T11:38:10.755Z,68.80
2018-04-29T11:41:09.530Z,74.00
2018-04-29T11:44:07.297Z,74.00
2018-04-29T11:47:05.209Z,75.70
2018-04-29T11:50:03.633Z,72.80
2018-04-29T11:53:01.283Z,72.70
2018-04-29T11:56:08.372Z,73.50
2018-04-29T11:59:13.150Z,70.60
2018-04-29T12:02:10.757Z,71.10
2018-04-29T12:05:09.578Z,67.70
2018-04-29T12:08:10.382Z,65.40
2018-04-29T12:11:08.073Z,65.10
2018-04-29T12:14:06.887Z,64.80
2018-04-29T12:17:05.639Z,63.10
2018-04-29T12:20:09.551Z,63.20
2018-04-29T12:23:08.217Z,61.90
2018-04-29T12:26:13.988Z,61.20
2018-04-29T12:29:12.812Z,61.20
2018-04-29T12:32:11.592Z,61.20
2018-04-29T12:35:09.323Z,60.30
2018-04-29T12:38:08.225Z,60.80
2018-04-29T12:41:05.894Z,61.70
2018-04-29T12:44:03.664Z,61.20
2018-04-29T12:47:01.535Z,61.30
2018-04-29T12:50:00.405Z,63.60
2018-04-29T12:52:59.353Z,61.70
2018-04-29T12:55:57.143Z,61.60
2018-04-29T12:58:54.883Z,61.90
2018-04-29T13:01:54.998Z,62.40
2018-04-29T13:04:53.492Z,60.90
2018-04-29T13:07:52.172Z,60.10
2018-04-29T13:10:50.039Z,61.10
2018-04-29T13:13:53.853Z,59.40
2018-04-29T13:16:51.576Z,59.80
2018-04-29T13:19:50.417Z,59.00
2018-04-29T13:22:49.146Z,58.70
2018-04-29T13:25:48.890Z,56.20
2018-04-29T13:28:46.649Z,56.20
2018-04-29T13:31:45.446Z,56.80
2018-04-29T13:34:44.455Z,56.90
2018-04-29T13:37:43.111Z,58.10
2018-04-29T14:12:16.359Z,55.60
2018-04-29T14:14:45.371Z,56.80
2018-04-29T14:17:14.358Z,54.70
2018-04-29T14:19:43.502Z,54.30
2018-04-29T14:22:12.858Z,53.60
2018-04-29T14:24:41.878Z,54.70
2018-04-29T14:27:11.620Z,56.40
2018-04-29T14:29:41.991Z,56.40
2018-04-29T14:32:10.985Z,56.90
2018-04-29T14:34:39.956Z,56.20
2018-04-29T14:37:08.995Z,56.40
2018-04-29T14:39:39.288Z,55.80
2018-04-29T14:42:10.665Z,55.70
2018-04-29T14:44:40.483Z,55.80
2018-04-29T14:47:10.342Z,55.00
2018-04-29T14:49:39.356Z,55.00
2018-04-29T14:52:08.770Z,54.90
2018-04-29T14:54:37.838Z,54.70
2018-04-29T14:57:06.860Z,54.60
2018-04-29T14:59:36.107Z,53.00
2018-04-29T15:02:05.173Z,53.00
2018-04-29T15:04:35.008Z,53.40
2018-04-29T15:07:05.391Z,53.40
2018-04-29T15:09:34.439Z,52.30
2018-04-29T15:12:03.463Z,52.70
2018-04-29T15:14:32.991Z,52.60
2018-04-29T15:17:02.043Z,53.70
2018-04-29T15:19:40.182Z,54.00
2018-04-29T15:22:16.941Z,54.60
2018-04-29T15:24:47.272Z,52.80
2018-04-29T15:27:16.450Z,51.80
2018-04-29T15:29:45.722Z,49.70
2018-04-29T15:32:14.763Z,48.00
2018-04-29T15:34:44.050Z,47.80
2018-04-29T15:37:14.279Z,48.50
2018-04-29T15:39:43.277Z,49.70
2018-04-29T15:42:12.930Z,50.00
2018-04-29T15:44:42.023Z,51.50
2018-04-29T15:47:11.897Z,52.20
2018-04-29T15:49:40.861Z,51.20
2018-04-29T15:52:10.327Z,51.40
2018-04-29T15:54:39.342Z,53.10
2018-04-29T15:57:08.336Z,54.10
2018-04-29T15:59:37.651Z,53.50
2018-04-29T16:02:06.849Z,53.80
2018-04-29T16:04:35.841Z,52.50
2018-04-29T16:07:05.045Z,53.40
2018-04-29T16:09:34.089Z,52.40
2018-04-29T16:12:03.892Z,53.10
2018-04-29T16:14:33.933Z,52.40
2018-04-29T16:17:03.130Z,52.40
2018-04-29T16:19:32.613Z,52.40
2018-04-29T16:22:02.816Z,52.90
2018-04-29T16:24:31.772Z,52.90
2018-04-29T16:27:00.734Z,53.10
2018-04-29T16:29:30.077Z,53.70
2018-04-29T16:31:59.046Z,53.80
2018-04-29T16:34:28.091Z,54.30
2018-04-29T16:36:57.206Z,54.70
2018-04-29T16:39:27.565Z,54.30
2018-04-29T16:41:58.109Z,54.30
2018-04-29T16:44:27.465Z,54.10
2018-04-29T16:46:57.098Z,54.30
2018-04-29T16:49:26.336Z,53.90
2018-04-29T16:51:55.669Z,53.80
2018-04-29T16:54:24.737Z,54.20
2018-04-29T16:56:54.161Z,55.00
2018-04-29T16:59:24.949Z,55.20
2018-04-29T17:01:54.025Z,55.20
2018-04-29T17:04:23.055Z,55.10
2018-04-29T17:06:53.377Z,55.40
2018-04-29T17:09:23.295Z,55.40
2018-04-29T17:11:53.141Z,56.10
2018-04-29T17:14:22.434Z,56.50
2018-04-29T17:16:52.356Z,56.30
2018-04-29T17:19:22.248Z,57.00
2018-04-29T17:21:51.641Z,57.00
2018-04-29T17:24:20.680Z,57.20
2018-04-29T17:26:50.665Z,57.20
2018-04-29T17:29:20.890Z,57.50
2018-04-29T17:31:49.904Z,57.50
2018-04-29T17:34:18.909Z,57.40
2018-04-29T17:36:49.213Z,57.50
2018-04-29T17:39:19.002Z,57.70
2018-04-29T17:41:48.877Z,57.90
2018-04-29T17:44:17.923Z,57.90
2018-04-29T17:46:47.860Z,58.30
2018-04-29T17:49:17.082Z,58.30
2018-04-29T17:51:48.706Z,58.40
2018-04-29T17:54:17.763Z,58.60
2018-04-29T17:56:46.848Z,59.20
2018-04-29T17:59:16.811Z,59.20
2018-04-29T18:01:45.873Z,59.50
2018-04-29T18:04:14.967Z,59.80
2018-04-29T18:06:45.129Z,60.00
2018-04-29T18:09:14.795Z,60.80
2018-04-29T18:11:43.858Z,62.70
2018-04-29T18:14:14.357Z,64.50
2018-04-29T18:16:43.551Z,65.70
2018-04-29T18:19:12.567Z,65.70
2018-04-29T18:21:41.905Z,66.50
2018-04-29T18:24:10.921Z,66.20
2018-04-29T18:26:40.667Z,67.10
2018-04-29T18:29:10.013Z,67.00
2018-04-29T18:31:39.791Z,69.20
2018-04-29T18:34:08.876Z,69.20
2018-04-29T18:36:39.304Z,70.30
2018-04-29T18:39:08.391Z,72.70
2018-04-29T18:41:37.377Z,73.20
2018-04-29T18:44:06.726Z,73.00
2018-04-29T18:46:35.759Z,73.20
2018-04-29T18:49:06.214Z,73.10
2018-04-29T18:51:36.833Z,72.30
2018-04-29T18:54:05.935Z,72.30
2018-04-29T18:56:34.944Z,73.10
2018-04-29T18:59:04.295Z,73.40
2018-04-29T19:01:35.798Z,74.50
2018-04-29T19:04:06.594Z,74.50
2018-04-29T19:06:35.875Z,74.70
2018-04-29T19:09:05.754Z,75.40
2018-04-29T19:11:34.748Z,75.40
2018-04-29T19:14:05.359Z,75.20
2018-04-29T19:16:34.309Z,74.90
2018-04-29T19:19:05.383Z,75.10
2018-04-29T19:21:34.678Z,75.10
2018-04-29T19:24:03.795Z,74.60
2018-04-29T19:26:32.775Z,74.50
2018-04-29T19:29:01.799Z,74.60
2018-04-29T19:31:30.905Z,74.50
2018-04-29T19:34:00.600Z,75.50
2018-04-29T19:36:29.986Z,75.50
2018-04-29T19:38:59.705Z,76.20
2018-04-29T19:41:28.677Z,76.30
2018-04-29T19:43:58.245Z,77.00
2018-04-29T19:46:28.295Z,77.60
2018-04-29T19:48:57.564Z,78.10
2018-04-29T19:51:29.891Z,78.30
2018-04-29T19:53:58.887Z,78.30
2018-04-29T19:56:27.921Z,78.20
2018-04-29T19:58:58.856Z,78.50
2018-04-29T20:01:28.650Z,78.00
2018-04-29T20:03:58.462Z,78.00
2018-04-29T20:06:28.157Z,77.80
2018-04-29T20:08:57.738Z,78.00
2018-04-29T20:11:27.359Z,77.60
2018-04-29T20:13:56.625Z,76.40
2018-04-29T20:16:27.574Z,76.40
2018-04-29T20:18:56.590Z,76.70
2018-04-29T20:21:26.166Z,76.70
2018-04-29T20:23:56.032Z,76.40
2018-04-29T20:26:25.018Z,76.20
2018-04-29T20:28:54.297Z,75.80
2018-04-29T20:31:23.404Z,76.40
2018-04-29T20:33:52.585Z,76.70
2018-04-29T20:36:22.575Z,76.10
2018-04-29T20:38:51.648Z,77.60
2018-04-29T20:41:21.583Z,76.80
2018-04-29T20:43:50.870Z,76.80
2018-04-29T20:46:20.576Z,75.20
2018-04-29T20:48:49.659Z,75.20
2018-04-29T20:51:19.789Z,74.10
2018-04-29T20:53:49.544Z,74.70
2018-04-29T20:56:19.276Z,74.20
2018-04-29T20:58:48.498Z,74.20
2018-04-29T21:01:18.220Z,73.10
2018-04-29T21:03:47.232Z,73.10
2018-04-29T21:06:16.494Z,72.80
2018-04-29T21:08:47.207Z,72.90
2018-04-29T21:11:16.182Z,72.90
2018-04-29T21:13:45.471Z,72.70
2018-04-29T21:16:14.894Z,72.10
2018-04-29T21:18:43.825Z,71.80
2018-04-29T21:21:13.881Z,71.80
2018-04-29T21:23:42.841Z,71.80
2018-04-29T21:26:11.794Z,72.60
2018-04-29T21:28:41.859Z,73.40
2018-04-29T21:31:10.799Z,73.30
2018-04-29T21:33:39.792Z,73.40
2018-04-29T21:36:09.094Z,73.70
2018-04-29T21:38:38.686Z,74.40
2018-04-29T21:41:07.672Z,75.80
2018-04-29T21:43:36.709Z,76.80
2018-04-29T21:46:07.346Z,76.50
2018-04-29T21:48:37.110Z,77.40
2018-04-29T21:51:07.127Z,76.50
2018-04-29T21:53:36.053Z,76.40
2018-04-29T21:56:05.834Z,78.40
2018-04-29T21:58:35.578Z,78.40
2018-04-29T22:01:05.348Z,81.50
2018-04-29T22:03:34.307Z,81.40
2018-04-29T22:06:04.591Z,82.90
2018-04-29T22:08:33.583Z,84.50
2018-04-29T22:11:10.662Z,84.10
2018-04-29T22:13:39.660Z,85.50
2018-04-29T22:16:08.594Z,88.40
2018-04-29T22:18:37.854Z,89.90
2018-04-29T22:21:07.578Z,87.70
2018-04-29T22:23:37.335Z,87.50
2018-04-29T22:26:06.331Z,87.50
2018-04-29T22:28:35.241Z,87.40
2018-04-29T22:31:04.260Z,90.10
2018-04-29T22:33:34.427Z,90.30
2018-04-29T22:36:03.407Z,90.30
2018-04-29T22:38:32.385Z,90.40
2018-04-29T22:41:01.359Z,91.20
2018-04-29T22:43:31.120Z,91.10
2018-04-29T22:46:00.111Z,91.10
2018-04-29T22:48:30.352Z,91.40
2018-04-29T22:50:59.353Z,91.50
2018-04-29T22:53:28.308Z,91.40
2018-04-29T22:55:57.556Z,91.60
2018-04-29T22:58:27.219Z,91.90
2018-04-29T23:00:56.160Z,91.90
2018-04-29T23:03:26.126Z,91.80
2018-04-29T23:05:55.099Z,91.80
2018-04-29T23:08:24.106Z,91.70
2018-04-29T23:10:53.454Z,91.60
2018-04-29T23:13:23.132Z,91.20
2018-04-29T23:15:52.059Z,91.00
2018-04-29T23:18:22.047Z,90.20
2018-04-29T23:20:51.760Z,90.70
2018-04-29T23:23:20.662Z,90.70
2018-04-29T23:25:49.851Z,90.50
2018-04-29T23:28:18.828Z,90.50
2018-04-29T23:30:47.679Z,90.70
2018-04-29T23:33:16.923Z,90.20
2018-04-29T23:35:45.927Z,90.40
2018-04-29T23:38:14.879Z,90.60
2018-04-29T23:40:45.095Z,90.90
2018-04-29T23:43:13.992Z,90.80
2018-04-29T23:45:42.963Z,91.00
2018-04-29T23:48:12.179Z,91.20
2018-04-29T23:50:41.107Z,91.30
2018-04-29T23:53:09.997Z,91.20
2018-04-29T23:55:39.318Z,91.20
2018-04-29T23:58:08.222Z,90.90
